sensor_id;sensor_type;location;lat;lon;timestamp;pressure;altitude;pressure_sealevel;temperature;humidity
46846;BME280;33947;46.804;134.252;2023-06-14T00:02:41;99905.59;;;28.15;49.16
46846;BME280;33947;46.804;134.252;2023-06-14T00:06:16;99824.44;;;28.40;48.99
46846;BME280;33947;46.804;134.252;2023-06-14T00:10:12;99833.13;;;29.24;47.30
46846;BME280;33947;46.804;134.252;2023-06-14T00:13:52;99807.69;;;29.23;47.13
46846;BME280;33947;46.804;134.252;2023-06-14T00:17:25;99751.94;;;29.24;46.71
46846;BME280;33947;46.804;134.252;2023-06-14T00:21:39;99852.56;;;30.37;44.88
46846;BME280;33947;46.804;134.252;2023-06-14T00:38:27;99870.59;;;30.31;46.38
46846;BME280;33947;46.804;134.252;2023-06-14T00:42:31;99783.69;;;30.25;46.21
46846;BME280;33947;46.804;134.252;2023-06-14T00:46:48;99797.22;;;31.30;42.43
46846;BME280;33947;46.804;134.252;2023-06-14T00:51:13;99801.38;;;31.92;42.69
46846;BME280;33947;46.804;134.252;2023-06-14T01:00:14;99765.47;;;31.21;43.40
46846;BME280;33947;46.804;134.252;2023-06-14T01:09:36;99798.88;;;28.81;47.44
46846;BME280;33947;46.804;134.252;2023-06-14T01:13:54;99873.34;;;29.15;49.25
46846;BME280;33947;46.804;134.252;2023-06-14T01:18:15;99862.44;;;29.46;47.98
46846;BME280;33947;46.804;134.252;2023-06-14T01:23:00;99802.16;;;29.31;47.19
46846;BME280;33947;46.804;134.252;2023-06-14T01:27:09;99879.19;;;29.90;47.30
46846;BME280;33947;46.804;134.252;2023-06-14T01:31:50;99745.91;;;29.06;47.30
46846;BME280;33947;46.804;134.252;2023-06-14T01:40:03;99803.81;;;31.36;42.68
46846;BME280;33947;46.804;134.252;2023-06-14T01:44:11;99774.19;;;32.03;41.25
46846;BME280;33947;46.804;134.252;2023-06-14T01:47:59;99764.84;;;31.98;42.04
46846;BME280;33947;46.804;134.252;2023-06-14T01:56:34;99735.75;;;32.03;40.12
46846;BME280;33947;46.804;134.252;2023-06-14T02:01:05;99721.69;;;30.91;43.09
46846;BME280;33947;46.804;134.252;2023-06-14T02:05:11;99769.28;;;31.70;43.07
46846;BME280;33947;46.804;134.252;2023-06-14T02:13:32;99829.94;;;28.32;50.00
46846;BME280;33947;46.804;134.252;2023-06-14T02:16:50;99824.09;;;29.23;48.22
46846;BME280;33947;46.804;134.252;2023-06-14T02:20:09;99832.38;;;29.62;47.33
46846;BME280;33947;46.804;134.252;2023-06-14T02:23:20;99836.88;;;29.78;46.39
46846;BME280;33947;46.804;134.252;2023-06-14T02:26:26;99777.44;;;28.93;47.38
46846;BME280;33947;46.804;134.252;2023-06-14T02:29:36;99832.69;;;28.80;48.82
46846;BME280;33947;46.804;134.252;2023-06-14T02:32:42;99739.09;;;27.90;50.03
46846;BME280;33947;46.804;134.252;2023-06-14T02:36:01;99816.69;;;28.69;49.63
46846;BME280;33947;46.804;134.252;2023-06-14T02:39:11;99832.03;;;29.10;48.73
46846;BME280;33947;46.804;134.252;2023-06-14T02:43:21;99828.31;;;28.54;49.58
46846;BME280;33947;46.804;134.252;2023-06-14T02:47:13;99715.78;;;27.29;51.21
46846;BME280;33947;46.804;134.252;2023-06-14T03:07:49;99815.06;;;28.91;47.10
46846;BME280;33947;46.804;134.252;2023-06-14T03:11:30;99798.94;;;29.51;45.43
46846;BME280;33947;46.804;134.252;2023-06-14T03:15:48;99739.19;;;29.16;45.07
46846;BME280;33947;46.804;134.252;2023-06-14T03:19:41;99729.88;;;29.26;46.04
46846;BME280;33947;46.804;134.252;2023-06-14T03:24:13;99679.94;;;28.85;46.03
46846;BME280;33947;46.804;134.252;2023-06-14T03:33:05;99666.47;;;28.52;43.57
46846;BME280;33947;46.804;134.252;2023-06-14T03:36:59;99749.53;;;28.35;46.71
46846;BME280;33947;46.804;134.252;2023-06-14T03:50:09;99664.47;;;28.06;47.12
46846;BME280;33947;46.804;134.252;2023-06-14T03:54:40;99792.97;;;29.24;47.38
46846;BME280;33947;46.804;134.252;2023-06-14T03:57:48;99757.47;;;29.39;45.87
46846;BME280;33947;46.804;134.252;2023-06-14T04:01:12;99781.59;;;29.12;45.32
46846;BME280;33947;46.804;134.252;2023-06-14T04:04:28;99784.75;;;29.01;45.60
46846;BME280;33947;46.804;134.252;2023-06-14T04:07:47;99771.13;;;28.93;45.52
46846;BME280;33947;46.804;134.252;2023-06-14T04:10:54;99755.94;;;29.37;46.09
46846;BME280;33947;46.804;134.252;2023-06-14T04:14:22;99713.31;;;29.04;45.06
46846;BME280;33947;46.804;134.252;2023-06-14T04:17:51;99796.69;;;29.55;45.53
46846;BME280;33947;46.804;134.252;2023-06-14T04:21:27;99766.88;;;29.13;45.94
46846;BME280;33947;46.804;134.252;2023-06-14T04:24:43;99761.22;;;28.60;46.63
46846;BME280;33947;46.804;134.252;2023-06-14T04:28:08;99758.94;;;28.32;47.49
46846;BME280;33947;46.804;134.252;2023-06-14T04:31:23;99758.13;;;28.23;47.86
46846;BME280;33947;46.804;134.252;2023-06-14T04:34:50;99761.94;;;27.89;46.44
46846;BME280;33947;46.804;134.252;2023-06-14T04:38:03;99766.91;;;27.85;47.75
46846;BME280;33947;46.804;134.252;2023-06-14T04:41:21;99737.75;;;27.69;47.85
46846;BME280;33947;46.804;134.252;2023-06-14T04:44:35;99748.16;;;27.57;48.16
46846;BME280;33947;46.804;134.252;2023-06-14T04:47:53;99751.41;;;27.69;47.20
46846;BME280;33947;46.804;134.252;2023-06-14T04:51:13;99732.66;;;27.25;48.28
46846;BME280;33947;46.804;134.252;2023-06-14T04:54:23;99746.88;;;26.77;49.20
46846;BME280;33947;46.804;134.252;2023-06-14T04:57:53;99732.03;;;26.63;49.55
46846;BME280;33947;46.804;134.252;2023-06-14T05:00:59;99749.66;;;27.02;49.32
46846;BME280;33947;46.804;134.252;2023-06-14T05:04:17;99730.28;;;27.13;49.62
46846;BME280;33947;46.804;134.252;2023-06-14T05:07:38;99728.91;;;27.34;49.21
46846;BME280;33947;46.804;134.252;2023-06-14T05:10:47;99661.06;;;27.06;49.14
46846;BME280;33947;46.804;134.252;2023-06-14T05:13:59;99720.75;;;27.51;49.20
46846;BME280;33947;46.804;134.252;2023-06-14T05:17:14;99727.56;;;27.55;49.76
46846;BME280;33947;46.804;134.252;2023-06-14T05:20:25;99727.03;;;27.35;50.51
46846;BME280;33947;46.804;134.252;2023-06-14T05:23:44;99721.06;;;27.31;50.75
46846;BME280;33947;46.804;134.252;2023-06-14T05:26:55;99728.41;;;27.39;51.04
46846;BME280;33947;46.804;134.252;2023-06-14T05:30:08;99736.25;;;27.67;51.09
46846;BME280;33947;46.804;134.252;2023-06-14T05:33:33;99733.69;;;27.65;50.99
46846;BME280;33947;46.804;134.252;2023-06-14T05:36:39;99710.66;;;27.43;51.93
46846;BME280;33947;46.804;134.252;2023-06-14T05:39:44;99698.03;;;27.67;51.39
46846;BME280;33947;46.804;134.252;2023-06-14T05:50:38;99721.38;;;27.69;50.62
46846;BME280;33947;46.804;134.252;2023-06-14T05:54:42;99707.41;;;26.98;52.88
46846;BME280;33947;46.804;134.252;2023-06-14T06:02:00;99704.22;;;26.43;54.74
46846;BME280;33947;46.804;134.252;2023-06-14T06:05:55;99600.03;;;25.47;55.17
46846;BME280;33947;46.804;134.252;2023-06-14T06:09:38;99716.91;;;26.18;55.29
46846;BME280;33947;46.804;134.252;2023-06-14T06:17:26;99676.03;;;25.83;55.47
46846;BME280;33947;46.804;134.252;2023-06-14T06:21:04;99651.66;;;25.73;56.09
46846;BME280;33947;46.804;134.252;2023-06-14T06:24:23;99675.47;;;25.71;57.18
46846;BME280;33947;46.804;134.252;2023-06-14T06:27:41;99736.34;;;25.96;57.93
46846;BME280;33947;46.804;134.252;2023-06-14T06:31:20;99708.03;;;25.36;59.89
46846;BME280;33947;46.804;134.252;2023-06-14T06:34:39;99713.72;;;25.25;61.66
46846;BME280;33947;46.804;134.252;2023-06-14T06:41:44;99720.06;;;24.79;63.87
46846;BME280;33947;46.804;134.252;2023-06-14T06:45:06;99740.16;;;24.68;65.45
46846;BME280;33947;46.804;134.252;2023-06-14T06:48:13;99742.00;;;24.68;65.74
46846;BME280;33947;46.804;134.252;2023-06-14T06:51:21;99737.09;;;24.53;66.46
46846;BME280;33947;46.804;134.252;2023-06-14T06:54:26;99756.19;;;24.34;68.19
46846;BME280;33947;46.804;134.252;2023-06-14T06:57:33;99759.31;;;24.11;71.04
46846;BME280;33947;46.804;134.252;2023-06-14T07:00:43;99743.75;;;24.03;70.82
46846;BME280;33947;46.804;134.252;2023-06-14T07:03:48;99756.63;;;23.81;73.43
46846;BME280;33947;46.804;134.252;2023-06-14T07:06:53;99749.66;;;23.79;71.34
46846;BME280;33947;46.804;134.252;2023-06-14T07:09:59;99744.25;;;23.79;71.66
46846;BME280;33947;46.804;134.252;2023-06-14T07:13:05;99732.84;;;23.65;72.70
46846;BME280;33947;46.804;134.252;2023-06-14T07:16:12;99734.84;;;23.63;73.19
46846;BME280;33947;46.804;134.252;2023-06-14T07:19:19;99759.28;;;23.44;73.84
46846;BME280;33947;46.804;134.252;2023-06-14T07:22:24;99739.00;;;22.89;75.40
46846;BME280;33947;46.804;134.252;2023-06-14T07:25:29;99744.03;;;23.13;75.87
46846;BME280;33947;46.804;134.252;2023-06-14T07:28:34;99757.13;;;22.98;77.49
46846;BME280;33947;46.804;134.252;2023-06-14T07:31:42;99738.88;;;22.90;77.73
46846;BME280;33947;46.804;134.252;2023-06-14T07:34:46;99742.84;;;22.86;77.87
46846;BME280;33947;46.804;134.252;2023-06-14T07:37:56;99729.72;;;22.81;78.31
46846;BME280;33947;46.804;134.252;2023-06-14T07:41:01;99730.84;;;22.69;79.05
46846;BME280;33947;46.804;134.252;2023-06-14T07:44:05;99720.16;;;22.58;79.09
46846;BME280;33947;46.804;134.252;2023-06-14T07:47:13;99700.25;;;22.27;78.31
46846;BME280;33947;46.804;134.252;2023-06-14T07:51:13;99601.28;;;21.43;77.49
46846;BME280;33947;46.804;134.252;2023-06-14T07:55:18;99652.41;;;21.56;78.57
46846;BME280;33947;46.804;134.252;2023-06-14T07:59:42;99665.50;;;21.30;80.42
46846;BME280;33947;46.804;134.252;2023-06-14T08:04:01;99733.22;;;21.38;81.72
46846;BME280;33947;46.804;134.252;2023-06-14T08:08:40;99784.72;;;21.25;84.41
46846;BME280;33947;46.804;134.252;2023-06-14T08:13:27;99684.94;;;20.58;85.21
46846;BME280;33947;46.804;134.252;2023-06-14T08:18:07;99674.25;;;20.57;83.28
46846;BME280;33947;46.804;134.252;2023-06-14T08:21:57;99683.97;;;20.48;83.90
46846;BME280;33947;46.804;134.252;2023-06-14T08:26:14;99609.16;;;20.06;84.24
46846;BME280;33947;46.804;134.252;2023-06-14T08:30:14;99640.75;;;20.15;85.08
46846;BME280;33947;46.804;134.252;2023-06-14T08:34:28;99683.16;;;20.24;86.28
46846;BME280;33947;46.804;134.252;2023-06-14T08:42:53;99615.78;;;20.13;86.21
46846;BME280;33947;46.804;134.252;2023-06-14T08:47:05;99609.66;;;20.11;86.20
46846;BME280;33947;46.804;134.252;2023-06-14T08:55:07;99734.00;;;21.07;85.74
46846;BME280;33947;46.804;134.252;2023-06-14T08:58:16;99742.28;;;21.16;86.08
46846;BME280;33947;46.804;134.252;2023-06-14T09:01:21;99734.78;;;21.19;86.07
46846;BME280;33947;46.804;134.252;2023-06-14T09:04:27;99738.13;;;21.11;86.40
46846;BME280;33947;46.804;134.252;2023-06-14T09:07:37;99736.63;;;21.19;86.75
46846;BME280;33947;46.804;134.252;2023-06-14T09:10:42;99731.94;;;21.21;86.91
46846;BME280;33947;46.804;134.252;2023-06-14T09:13:49;99729.25;;;21.21;87.01
46846;BME280;33947;46.804;134.252;2023-06-14T09:16:54;99720.50;;;21.29;87.21
46846;BME280;33947;46.804;134.252;2023-06-14T09:20:00;99718.91;;;21.26;87.93
46846;BME280;33947;46.804;134.252;2023-06-14T09:23:05;99707.91;;;21.18;87.87
46846;BME280;33947;46.804;134.252;2023-06-14T09:26:15;99716.66;;;21.10;89.20
46846;BME280;33947;46.804;134.252;2023-06-14T09:29:26;99734.75;;;21.31;88.11
46846;BME280;33947;46.804;134.252;2023-06-14T09:32:39;99738.25;;;21.43;87.14
46846;BME280;33947;46.804;134.252;2023-06-14T09:35:53;99721.41;;;21.39;87.03
46846;BME280;33947;46.804;134.252;2023-06-14T09:39:01;99734.06;;;21.38;86.95
46846;BME280;33947;46.804;134.252;2023-06-14T09:42:19;99739.63;;;21.37;87.26
46846;BME280;33947;46.804;134.252;2023-06-14T09:45:25;99747.09;;;21.33;87.10
46846;BME280;33947;46.804;134.252;2023-06-14T09:48:35;99732.47;;;21.15;88.18
46846;BME280;33947;46.804;134.252;2023-06-14T09:51:45;99736.28;;;21.12;88.86
46846;BME280;33947;46.804;134.252;2023-06-14T09:54:52;99747.69;;;21.16;89.28
46846;BME280;33947;46.804;134.252;2023-06-14T09:58:13;99751.50;;;21.13;88.81
46846;BME280;33947;46.804;134.252;2023-06-14T10:01:20;99739.66;;;21.04;88.53
46846;BME280;33947;46.804;134.252;2023-06-14T10:04:29;99678.91;;;20.54;89.00
46846;BME280;33947;46.804;134.252;2023-06-14T10:08:51;99681.34;;;20.58;88.78
46846;BME280;33947;46.804;134.252;2023-06-14T10:13:06;99741.31;;;20.84;88.36
46846;BME280;33947;46.804;134.252;2023-06-14T10:20:11;99732.47;;;20.82;87.76
46846;BME280;33947;46.804;134.252;2023-06-14T10:23:45;99765.44;;;20.97;87.79
46846;BME280;33947;46.804;134.252;2023-06-14T10:26:58;99749.88;;;20.89;89.13
46846;BME280;33947;46.804;134.252;2023-06-14T10:30:10;99751.25;;;20.61;91.00
46846;BME280;33947;46.804;134.252;2023-06-14T10:33:28;99756.91;;;20.58;91.68
46846;BME280;33947;46.804;134.252;2023-06-14T10:36:43;99779.56;;;20.78;89.95
46846;BME280;33947;46.804;134.252;2023-06-14T10:41:00;99715.28;;;20.28;90.58
46846;BME280;33947;46.804;134.252;2023-06-14T10:45:13;99645.97;;;19.95;89.65
46846;BME280;33947;46.804;134.252;2023-06-14T10:49:09;99764.00;;;20.70;89.11
46846;BME280;33947;46.804;134.252;2023-06-14T10:52:22;99695.28;;;20.30;89.06
46846;BME280;33947;46.804;134.252;2023-06-14T10:55:54;99790.53;;;20.65;90.23
46846;BME280;33947;46.804;134.252;2023-06-14T10:59:46;99765.88;;;20.58;89.10
46846;BME280;33947;46.804;134.252;2023-06-14T11:03:36;99791.00;;;20.81;88.56
46846;BME280;33947;46.804;134.252;2023-06-14T11:07:09;99745.31;;;20.46;88.44
46846;BME280;33947;46.804;134.252;2023-06-14T11:10:39;99786.81;;;20.77;88.73
46846;BME280;33947;46.804;134.252;2023-06-14T11:14:34;99745.59;;;20.64;88.44
46846;BME280;33947;46.804;134.252;2023-06-14T11:18:46;99769.78;;;20.65;88.84
46846;BME280;33947;46.804;134.252;2023-06-14T11:23:08;99631.09;;;19.44;91.90
46846;BME280;33947;46.804;134.252;2023-06-14T11:27:22;99720.94;;;19.90;93.49
46846;BME280;33947;46.804;134.252;2023-06-14T11:31:06;99771.53;;;20.32;91.55
46846;BME280;33947;46.804;134.252;2023-06-14T11:34:27;99717.75;;;19.97;91.28
46846;BME280;33947;46.804;134.252;2023-06-14T11:43:23;99642.00;;;19.54;90.08
46846;BME280;33947;46.804;134.252;2023-06-14T11:51:49;99748.38;;;20.18;88.94
46846;BME280;33947;46.804;134.252;2023-06-14T11:59:25;99707.47;;;19.90;88.04
46846;BME280;33947;46.804;134.252;2023-06-14T12:02:55;99812.09;;;20.53;88.74
46846;BME280;33947;46.804;134.252;2023-06-14T12:06:08;99813.47;;;20.48;89.56
46846;BME280;33947;46.804;134.252;2023-06-14T12:09:16;99814.94;;;20.52;89.20
46846;BME280;33947;46.804;134.252;2023-06-14T12:12:24;99774.59;;;20.16;89.60
46846;BME280;33947;46.804;134.252;2023-06-14T12:15:35;99808.94;;;20.48;89.61
46846;BME280;33947;46.804;134.252;2023-06-14T12:18:41;99799.72;;;20.39;90.16
46846;BME280;33947;46.804;134.252;2023-06-14T12:21:49;99786.50;;;20.48;89.00
46846;BME280;33947;46.804;134.252;2023-06-14T12:25:31;99807.47;;;20.44;89.74
46846;BME280;33947;46.804;134.252;2023-06-14T12:28:36;99797.66;;;20.32;90.19
46846;BME280;33947;46.804;134.252;2023-06-14T12:31:47;99798.50;;;20.21;91.11
46846;BME280;33947;46.804;134.252;2023-06-14T12:34:57;99778.78;;;20.09;91.59
46846;BME280;33947;46.804;134.252;2023-06-14T12:38:01;99806.22;;;20.25;90.91
46846;BME280;33947;46.804;134.252;2023-06-14T12:41:14;99802.28;;;20.18;91.16
46846;BME280;33947;46.804;134.252;2023-06-14T12:44:20;99784.41;;;20.17;90.16
46846;BME280;33947;46.804;134.252;2023-06-14T12:47:26;99794.44;;;20.15;90.10
46846;BME280;33947;46.804;134.252;2023-06-14T12:50:34;99799.09;;;20.24;89.59
46846;BME280;33947;46.804;134.252;2023-06-14T12:53:40;99809.44;;;20.31;88.94
46846;BME280;33947;46.804;134.252;2023-06-14T12:56:44;99793.97;;;20.21;89.12
46846;BME280;33947;46.804;134.252;2023-06-14T12:59:50;99810.63;;;20.04;91.49
46846;BME280;33947;46.804;134.252;2023-06-14T13:02:57;99815.53;;;20.10;91.80
46846;BME280;33947;46.804;134.252;2023-06-14T13:06:04;99804.50;;;20.02;92.25
46846;BME280;33947;46.804;134.252;2023-06-14T13:09:12;99813.81;;;20.09;91.78
46846;BME280;33947;46.804;134.252;2023-06-14T13:12:20;99805.09;;;19.94;93.32
46846;BME280;33947;46.804;134.252;2023-06-14T13:15:28;99805.97;;;19.94;92.70
46846;BME280;33947;46.804;134.252;2023-06-14T13:18:34;99816.63;;;19.96;93.65
46846;BME280;33947;46.804;134.252;2023-06-14T13:21:41;99819.88;;;19.88;95.41
46846;BME280;33947;46.804;134.252;2023-06-14T13:24:50;99807.69;;;19.95;94.32
46846;BME280;33947;46.804;134.252;2023-06-14T13:27:56;99821.03;;;19.97;94.82
46846;BME280;33947;46.804;134.252;2023-06-14T13:31:02;99826.47;;;19.84;95.78
46846;BME280;33947;46.804;134.252;2023-06-14T13:34:08;99809.56;;;19.71;96.08
46846;BME280;33947;46.804;134.252;2023-06-14T13:37:22;99822.03;;;19.72;96.80
46846;BME280;33947;46.804;134.252;2023-06-14T13:40:30;99830.25;;;19.70;96.97
46846;BME280;33947;46.804;134.252;2023-06-14T13:43:36;99799.84;;;19.57;97.49
46846;BME280;33947;46.804;134.252;2023-06-14T13:46:44;99818.84;;;19.66;96.24
46846;BME280;33947;46.804;134.252;2023-06-14T13:49:53;99779.25;;;19.56;94.86
46846;BME280;33947;46.804;134.252;2023-06-14T13:53:46;99695.94;;;18.94;95.32
46846;BME280;33947;46.804;134.252;2023-06-14T13:57:22;99732.53;;;19.21;95.60
46846;BME280;33947;46.804;134.252;2023-06-14T14:01:03;99802.44;;;19.58;94.48
46846;BME280;33947;46.804;134.252;2023-06-14T14:04:08;99795.19;;;19.59;93.96
46846;BME280;33947;46.804;134.252;2023-06-14T14:07:15;99800.09;;;19.29;96.22
46846;BME280;33947;46.804;134.252;2023-06-14T14:10:22;99749.97;;;18.91;96.75
46846;BME280;33947;46.804;134.252;2023-06-14T14:13:29;99709.44;;;18.57;98.33
46846;BME280;33947;46.804;134.252;2023-06-14T14:16:42;99793.72;;;19.19;97.50
46846;BME280;33947;46.804;134.252;2023-06-14T14:19:49;99793.31;;;19.12;97.44
46846;BME280;33947;46.804;134.252;2023-06-14T14:22:57;99800.00;;;19.06;98.19
46846;BME280;33947;46.804;134.252;2023-06-14T14:26:04;99773.88;;;18.95;98.67
46846;BME280;33947;46.804;134.252;2023-06-14T14:29:09;99784.16;;;19.15;98.61
46846;BME280;33947;46.804;134.252;2023-06-14T14:32:17;99787.59;;;19.17;97.43
46846;BME280;33947;46.804;134.252;2023-06-14T14:35:23;99765.00;;;19.06;97.24
46846;BME280;33947;46.804;134.252;2023-06-14T14:38:31;99774.13;;;19.17;97.15
46846;BME280;33947;46.804;134.252;2023-06-14T14:41:35;99776.75;;;19.05;96.70
46846;BME280;33947;46.804;134.252;2023-06-14T14:44:50;99772.59;;;19.13;95.38
46846;BME280;33947;46.804;134.252;2023-06-14T14:47:55;99774.91;;;19.06;95.52
46846;BME280;33947;46.804;134.252;2023-06-14T14:51:03;99778.28;;;18.97;96.64
46846;BME280;33947;46.804;134.252;2023-06-14T14:54:10;99780.56;;;18.90;97.18
46846;BME280;33947;46.804;134.252;2023-06-14T14:57:17;99734.63;;;18.56;97.48
46846;BME280;33947;46.804;134.252;2023-06-14T15:00:23;99793.50;;;18.85;97.50
46846;BME280;33947;46.804;134.252;2023-06-14T15:03:30;99771.97;;;18.85;97.07
46846;BME280;33947;46.804;134.252;2023-06-14T15:06:50;99781.53;;;18.89;97.08
46846;BME280;33947;46.804;134.252;2023-06-14T15:09:57;99783.72;;;18.84;97.35
46846;BME280;33947;46.804;134.252;2023-06-14T15:13:04;99764.47;;;18.77;97.74
46846;BME280;33947;46.804;134.252;2023-06-14T15:16:10;99774.91;;;18.82;97.50
46846;BME280;33947;46.804;134.252;2023-06-14T15:19:18;99769.97;;;18.75;96.83
46846;BME280;33947;46.804;134.252;2023-06-14T15:22:26;99781.28;;;18.68;97.71
46846;BME280;33947;46.804;134.252;2023-06-14T15:25:35;99778.41;;;18.58;98.86
46846;BME280;33947;46.804;134.252;2023-06-14T15:28:41;99780.41;;;18.67;98.91
46846;BME280;33947;46.804;134.252;2023-06-14T15:31:49;99777.63;;;18.69;97.84
46846;BME280;33947;46.804;134.252;2023-06-14T15:34:57;99779.78;;;18.63;98.97
46846;BME280;33947;46.804;134.252;2023-06-14T15:38:02;99757.56;;;18.48;98.77
46846;BME280;33947;46.804;134.252;2023-06-14T15:41:08;99779.94;;;18.73;98.42
46846;BME280;33947;46.804;134.252;2023-06-14T15:44:30;99751.44;;;18.46;99.24
46846;BME280;33947;46.804;134.252;2023-06-14T15:47:37;99757.53;;;18.61;98.69
46846;BME280;33947;46.804;134.252;2023-06-14T15:50:43;99758.59;;;18.59;98.72
46846;BME280;33947;46.804;134.252;2023-06-14T15:53:51;99751.97;;;18.51;99.58
46846;BME280;33947;46.804;134.252;2023-06-14T15:56:58;99788.44;;;18.80;98.80
46846;BME280;33947;46.804;134.252;2023-06-14T16:00:05;99753.41;;;18.69;98.70
46846;BME280;33947;46.804;134.252;2023-06-14T16:03:11;99744.50;;;18.55;98.50
46846;BME280;33947;46.804;134.252;2023-06-14T16:06:17;99767.28;;;18.75;98.35
46846;BME280;33947;46.804;134.252;2023-06-14T16:09:23;99791.63;;;18.98;97.28
46846;BME280;33947;46.804;134.252;2023-06-14T16:12:29;99754.66;;;18.76;97.10
46846;BME280;33947;46.804;134.252;2023-06-14T16:15:35;99760.94;;;18.76;98.02
46846;BME280;33947;46.804;134.252;2023-06-14T16:18:41;99794.00;;;18.90;97.92
46846;BME280;33947;46.804;134.252;2023-06-14T16:21:47;99780.59;;;18.77;98.40
46846;BME280;33947;46.804;134.252;2023-06-14T16:24:54;99780.28;;;18.82;98.25
46846;BME280;33947;46.804;134.252;2023-06-14T16:28:00;99764.34;;;18.78;97.64
46846;BME280;33947;46.804;134.252;2023-06-14T16:31:11;99786.78;;;18.90;96.29
46846;BME280;33947;46.804;134.252;2023-06-14T16:34:17;99780.50;;;18.78;96.65
46846;BME280;33947;46.804;134.252;2023-06-14T16:37:24;99789.94;;;18.84;97.78
46846;BME280;33947;46.804;134.252;2023-06-14T16:40:33;99777.84;;;18.65;97.76
46846;BME280;33947;46.804;134.252;2023-06-14T16:43:42;99793.72;;;18.82;97.43
46846;BME280;33947;46.804;134.252;2023-06-14T16:46:47;99799.69;;;18.61;98.59
46846;BME280;33947;46.804;134.252;2023-06-14T16:49:57;99783.72;;;18.46;99.21
46846;BME280;33947;46.804;134.252;2023-06-14T16:53:03;99788.97;;;18.35;99.92
46846;BME280;33947;46.804;134.252;2023-06-14T16:56:13;99805.44;;;18.43;100.00
46846;BME280;33947;46.804;134.252;2023-06-14T16:59:18;99755.47;;;18.15;99.85
46846;BME280;33947;46.804;134.252;2023-06-14T17:02:27;99816.72;;;18.48;99.57
46846;BME280;33947;46.804;134.252;2023-06-14T17:05:32;99838.13;;;18.37;100.00
46846;BME280;33947;46.804;134.252;2023-06-14T17:08:43;99837.06;;;18.27;100.00
46846;BME280;33947;46.804;134.252;2023-06-14T17:11:50;99837.41;;;18.22;100.00
46846;BME280;33947;46.804;134.252;2023-06-14T17:14:57;99853.31;;;18.38;100.00
46846;BME280;33947;46.804;134.252;2023-06-14T17:18:03;99823.41;;;18.30;100.00
46846;BME280;33947;46.804;134.252;2023-06-14T17:21:09;99846.53;;;18.45;99.70
46846;BME280;33947;46.804;134.252;2023-06-14T17:24:15;99834.28;;;18.41;99.96
46846;BME280;33947;46.804;134.252;2023-06-14T17:27:30;99810.81;;;18.43;98.79
46846;BME280;33947;46.804;134.252;2023-06-14T17:30:36;99807.81;;;18.35;98.74
46846;BME280;33947;46.804;134.252;2023-06-14T17:33:42;99828.09;;;18.65;97.51
46846;BME280;33947;46.804;134.252;2023-06-14T17:36:48;99836.44;;;18.73;96.16
46846;BME280;33947;46.804;134.252;2023-06-14T17:39:56;99814.16;;;18.34;97.66
46846;BME280;33947;46.804;134.252;2023-06-14T17:43:02;99866.50;;;18.67;98.96
46846;BME280;33947;46.804;134.252;2023-06-14T17:46:08;99764.09;;;18.07;98.54
46846;BME280;33947;46.804;134.252;2023-06-14T17:49:14;99865.44;;;18.57;99.61
46846;BME280;33947;46.804;134.252;2023-06-14T17:52:21;99819.44;;;18.35;99.89
46846;BME280;33947;46.804;134.252;2023-06-14T17:55:27;99802.03;;;18.28;99.56
46846;BME280;33947;46.804;134.252;2023-06-14T17:58:34;99804.69;;;18.41;99.33
46846;BME280;33947;46.804;134.252;2023-06-14T18:01:39;99832.41;;;18.55;99.03
46846;BME280;33947;46.804;134.252;2023-06-14T18:04:56;99839.88;;;18.38;99.81
46846;BME280;33947;46.804;134.252;2023-06-14T18:08:02;99865.53;;;18.68;99.47
46846;BME280;33947;46.804;134.252;2023-06-14T18:11:09;99857.28;;;18.45;100.00
46846;BME280;33947;46.804;134.252;2023-06-14T18:14:14;99869.09;;;18.56;100.00
46846;BME280;33947;46.804;134.252;2023-06-14T18:17:20;99862.97;;;18.54;100.00
46846;BME280;33947;46.804;134.252;2023-06-14T18:20:26;99853.63;;;18.59;100.00
46846;BME280;33947;46.804;134.252;2023-06-14T18:23:34;99822.56;;;18.29;100.00
46846;BME280;33947;46.804;134.252;2023-06-14T18:26:41;99848.13;;;18.48;100.00
46846;BME280;33947;46.804;134.252;2023-06-14T18:29:47;99860.72;;;18.60;100.00
46846;BME280;33947;46.804;134.252;2023-06-14T18:32:51;99856.84;;;18.64;100.00
46846;BME280;33947;46.804;134.252;2023-06-14T18:35:59;99853.72;;;18.58;100.00
46846;BME280;33947;46.804;134.252;2023-06-14T18:39:07;99856.31;;;18.46;100.00
46846;BME280;33947;46.804;134.252;2023-06-14T18:42:14;99869.97;;;18.43;100.00
46846;BME280;33947;46.804;134.252;2023-06-14T18:45:20;99857.16;;;18.34;100.00
46846;BME280;33947;46.804;134.252;2023-06-14T18:48:30;99869.84;;;18.32;100.00
46846;BME280;33947;46.804;134.252;2023-06-14T18:51:36;99873.50;;;18.31;100.00
46846;BME280;33947;46.804;134.252;2023-06-14T18:54:45;99866.00;;;18.10;100.00
46846;BME280;33947;46.804;134.252;2023-06-14T18:57:51;99889.97;;;18.13;100.00
46846;BME280;33947;46.804;134.252;2023-06-14T19:00:57;99895.91;;;18.18;100.00
46846;BME280;33947;46.804;134.252;2023-06-14T19:04:03;99891.28;;;18.20;100.00
46846;BME280;33947;46.804;134.252;2023-06-14T19:07:10;99897.63;;;18.19;100.00
46846;BME280;33947;46.804;134.252;2023-06-14T19:10:15;99912.03;;;18.31;100.00
46846;BME280;33947;46.804;134.252;2023-06-14T19:13:23;99929.34;;;18.27;100.00
46846;BME280;33947;46.804;134.252;2023-06-14T19:16:29;99927.19;;;18.19;100.00